Beacon, New York
Current Conditions -  °F | °C
As of 4:45 PM on Monday 20 Oct 2014 (Local Time) from KSWF Reporting Station
Scattered Clouds Scattered Clouds  
Wind Chill: 59°   Ceiling: Unl
Heat Index: 59°   Visibility: 20mi
Dew Point: 37°   Wind: 12mph
Humidity: 45%   Direction: 270°W
Pressure: 29.96"   Gusts: NA
Location:  41.5°N, 73.97°W
Report Text: KSWF 202045Z 27010KT 20SM SCT100 15/03 A2996
Loading
Personal Weather Stations






























Interactive Weather Map New forecast layout! Learn more

10-Day Weather Forecast

Advertisements
Track Severe Weather on mobile